KSPF/SPF METAR and TAF weather

Enter ICAO airport designator
Station Type Date Time Source
KSPF METAR 2020/10/29 16:55 UTC NOAA

KSPF 291655Z AUTO 29012KT 10SM CLR 14/00 A3000 RMK AO2 PWINO


Station Type Date Time Source
KSPF Decoded METAR 2020/10/29 16:55 UTC NOAA

Spearfish / Clyde Ice, SD, United States (KSPF) 44-29N 103-47W
Oct 29, 2020 - 12:55 PM EDT / 2020.10.29 1655 UTC
Wind: from the WNW (290 degrees) at 14 MPH (12 KT):0
Visibility: 10 mile(s):0
Sky conditions: clear
Temperature: 57 F (14 C)
Dew Point: 32 F (0 C)
Relative Humidity: 38%
Pressure (altimeter): 30 in. Hg (1015 hPa)
ob: KSPF 291655Z AUTO 29012KT 10SM CLR 14/00 A3000 RMK AO2 PWINO
cycle: 17

Station Type Date Time Source
KSPF TAF UTC NOAA

Error!

Example: see airport list